Time;durP1;ratioP1;P1;durP2;ratioP2;P2;SDS_P1;SDS_P2;PMS_P1;PMS_P2;Temp;Humidity;BMP_temperature;BMP_pressure;BME280_temperature;BME280_humidity;BME280_pressure;Samples;Min_cycle;Max_cycle;Signal;HPM_P1;HPM_P2
2023/10/21 00:02:02;;;;;;;11.02;4.72;;;;;;;11.12;100.00;98146.03;5025356;28;20119;-68
2023/10/21 00:04:28;;;;;;;9.45;4.50;;;;;;;11.03;100.00;98142.16;5039370;28;20045;-68
2023/10/21 00:06:54;;;;;;;9.23;4.75;;;;;;;11.13;100.00;98145.00;5024205;28;20107;-68
2023/10/21 00:09:20;;;;;;;6.85;3.67;;;;;;;11.12;100.00;98146.03;5023087;28;20049;-68
2023/10/21 00:11:46;;;;;;;7.07;3.42;;;;;;;11.25;100.00;98142.44;5022372;28;20041;-68
2023/10/21 00:14:11;;;;;;;7.95;3.38;;;;;;;11.27;100.00;98150.78;5026771;28;20028;-68
2023/10/21 00:16:37;;;;;;;19.10;5.03;;;;;;;11.17;100.00;98158.31;5040824;28;20398;-68
2023/10/21 00:19:03;;;;;;;9.30;2.95;;;;;;;11.20;100.00;98163.84;5041765;28;20048;-68
2023/10/21 00:21:29;;;;;;;7.68;2.95;;;;;;;11.25;100.00;98163.97;5043889;28;20345;-67
2023/10/21 00:23:54;;;;;;;7.90;2.90;;;;;;;11.33;100.00;98170.63;5021109;28;20037;-68
2023/10/21 00:26:20;;;;;;;7.15;3.03;;;;;;;11.38;100.00;98168.16;5037892;28;20128;-68
2023/10/21 00:28:50;;;;;;;6.18;2.80;;;;;;;11.33;100.00;98175.81;5036036;28;20114;-67
2023/10/21 00:31:16;;;;;;;10.55;2.60;;;;;;;11.33;100.00;98175.81;5025213;28;20495;-68
2023/10/21 00:33:41;;;;;;;7.55;2.80;;;;;;;11.28;100.00;98183.47;5020320;28;20041;-68
2023/10/21 00:36:07;;;;;;;10.98;2.55;;;;;;;11.38;100.00;98178.53;5029837;28;20041;-67
2023/10/21 00:38:32;;;;;;;6.40;2.17;;;;;;;11.42;100.00;98184.06;5041279;28;20021;-67
2023/10/21 00:40:58;;;;;;;10.10;2.13;;;;;;;11.45;100.00;98187.00;5024536;28;20049;-68
2023/10/21 00:43:33;;;;;;;6.93;2.10;;;;;;;11.40;100.00;98194.66;5038620;28;20037;-68
2023/10/21 00:46:06;;;;;;;3.20;2.20;;;;;;;11.50;100.00;98194.88;5022945;28;20133;-67
2023/10/21 00:48:32;;;;;;;4.30;2.15;;;;;;;11.39;100.00;98203.44;5018401;28;20049;-67
2023/10/21 00:50:58;;;;;;;6.43;2.58;;;;;;;11.44;100.00;98207.97;5037385;28;20033;-67
2023/10/21 00:53:24;;;;;;;6.53;2.63;;;;;;;11.47;100.00;98205.72;5020281;28;20033;-68
2023/10/21 00:55:51;;;;;;;6.35;2.80;;;;;;;11.45;100.00;98212.97;5018983;28;20072;-67
2023/10/21 00:58:19;;;;;;;5.55;2.17;;;;;;;11.50;100.00;98217.47;5030672;28;20140;-67
2023/10/21 01:00:44;;;;;;;7.18;2.60;;;;;;;11.44;100.00;98216.56;5033175;28;20028;-67
2023/10/21 01:03:11;;;;;;;4.82;2.70;;;;;;;11.42;100.00;98210.78;5034148;28;20037;-67
2023/10/21 01:05:37;;;;;;;7.35;2.50;;;;;;;11.58;100.00;98217.13;5021064;28;20036;-68
2023/10/21 01:08:03;;;;;;;6.55;2.58;;;;;;;11.59;100.00;98225.72;5021894;28;20048;-68
2023/10/21 01:10:28;;;;;;;4.78;2.08;;;;;;;11.58;100.00;98226.72;5020736;28;20057;-67
2023/10/21 01:12:54;;;;;;;5.60;2.30;;;;;;;11.56;100.00;98231.34;5005892;28;20064;-68
2023/10/21 01:15:19;;;;;;;6.85;2.17;;;;;;;11.67;100.00;98227.97;5024526;28;20036;-67
2023/10/21 01:17:51;;;;;;;6.00;2.28;;;;;;;11.64;100.00;98231.81;5019968;28;20037;-67
2023/10/21 01:20:17;;;;;;;5.85;2.30;;;;;;;11.69;100.00;98224.13;5006909;28;20443;-67
2023/10/21 01:22:45;;;;;;;2.53;1.90;;;;;;;11.69;100.00;98239.69;5037082;28;20140;-68
2023/10/21 01:25:11;;;;;;;3.42;2.13;;;;;;;11.67;100.00;98228.75;5019828;28;23046;-67
2023/10/21 01:27:37;;;;;;;4.18;2.25;;;;;;;11.73;100.00;98245.22;5005614;28;20091;-68
2023/10/21 01:30:05;;;;;;;7.60;2.30;;;;;;;11.77;100.00;98238.59;5010738;28;20056;-68
2023/10/21 01:32:31;;;;;;;3.67;1.98;;;;;;;11.77;100.00;98248.97;5035873;28;20149;-67
2023/10/21 01:34:57;;;;;;;6.10;2.60;;;;;;;11.96;100.00;98243.69;5023504;28;20040;-68
2023/10/21 01:37:22;;;;;;;5.88;2.80;;;;;;;11.83;100.00;98255.84;5023878;28;20037;-67
2023/10/21 01:39:48;;;;;;;6.30;2.97;;;;;;;11.74;100.00;98254.59;5024608;28;20581;-68
2023/10/21 01:42:14;;;;;;;3.55;2.42;;;;;;;11.78;100.00;98260.94;5026307;28;20039;-67
2023/10/21 01:44:39;;;;;;;3.92;2.58;;;;;;;11.76;100.00;98262.19;5007137;28;20053;-67
2023/10/21 01:47:05;;;;;;;8.85;3.28;;;;;;;11.74;100.00;98269.41;5021798;28;20071;-67
2023/10/21 01:49:31;;;;;;;3.55;2.78;;;;;;;11.77;100.00;98271.53;5022007;28;20041;-67
2023/10/21 01:51:57;;;;;;;6.28;3.38;;;;;;;11.84;100.00;98269.63;5023552;28;20037;-67
2023/10/21 01:54:22;;;;;;;9.75;3.00;;;;;;;11.81;100.00;98270.88;5022124;28;20044;-67
2023/10/21 01:56:48;;;;;;;8.48;3.55;;;;;;;11.77;100.00;98271.53;5011343;28;20036;-67
2023/10/21 01:59:14;;;;;;;6.85;3.97;;;;;;;11.76;100.00;98277.75;5023682;28;20055;-67
2023/10/21 02:01:41;;;;;;;6.70;4.47;;;;;;;11.74;100.00;98284.97;5021098;28;20086;-70
2023/10/21 02:04:06;;;;;;;6.22;3.95;;;;;;;11.69;100.00;98290.81;5029290;28;20079;-68
2023/10/21 02:06:32;;;;;;;8.23;4.47;;;;;;;11.65;100.00;98289.69;5007376;28;20061;-67
2023/10/21 02:08:57;;;;;;;9.60;4.70;;;;;;;11.74;100.00;98293.53;5040883;28;20033;-68
2023/10/21 02:11:26;;;;;;;22.83;5.90;;;;;;;11.64;100.00;98296.69;5024117;28;21703;-68
2023/10/21 02:13:52;;;;;;;9.55;4.45;;;;;;;11.65;100.00;98300.06;5009294;28;20037;-68
2023/10/21 02:16:18;;;;;;;8.80;4.93;;;;;;;11.79;100.00;98303.25;5026632;28;20036;-68
2023/10/21 02:18:43;;;;;;;11.50;5.88;;;;;;;11.74;100.00;98310.94;5006291;28;20051;-68
2023/10/21 02:21:09;;;;;;;7.78;4.45;;;;;;;11.61;100.00;98314.53;5024849;28;20266;-68
2023/10/21 02:23:35;;;;;;;7.25;4.50;;;;;;;11.56;100.00;98314.38;5019862;28;20578;-68
2023/10/21 02:26:05;;;;;;;7.65;5.00;;;;;;;11.53;100.00;98320.81;5027116;28;20510;-68
2023/10/21 02:28:31;;;;;;;7.80;5.07;;;;;;;11.55;100.00;98326.59;5036922;28;20060;-69
2023/10/21 02:30:57;;;;;;;8.57;5.15;;;;;;;11.54;100.00;98329.41;5041664;28;20032;-69
2023/10/21 02:33:25;;;;;;;9.68;5.72;;;;;;;11.50;100.00;98332.41;5039052;28;20096;-69
2023/10/21 02:35:55;;;;;;;12.80;4.95;;;;;;;11.56;100.00;98335.94;5009503;28;20025;-68
2023/10/21 02:38:24;;;;;;;13.35;6.18;;;;;;;11.66;100.00;98338.81;5037695;28;20041;-68
2023/10/21 02:40:49;;;;;;;10.43;6.03;;;;;;;11.66;100.00;98336.19;5023329;28;20432;-69
2023/10/21 02:43:15;;;;;;;10.00;5.35;;;;;;;11.63;100.00;98343.63;5023363;28;20095;-69
2023/10/21 02:45:40;;;;;;;12.13;5.97;;;;;;;11.75;100.00;98347.03;5022006;28;20060;-68
2023/10/21 02:48:06;;;;;;;14.70;6.75;;;;;;;11.69;100.00;98346.13;5022728;28;20052;-69
2023/10/21 02:50:32;;;;;;;9.02;5.57;;;;;;;11.65;100.00;98352.00;5008619;28;20025;-69
2023/10/21 02:52:57;;;;;;;8.40;5.13;;;;;;;11.60;100.00;98367.44;5024698;28;20043;-69
2023/10/21 02:55:25;;;;;;;13.52;6.15;;;;;;;11.65;100.00;98363.16;5009773;28;20025;-68
2023/10/21 02:57:51;;;;;;;10.65;6.20;;;;;;;11.61;100.00;98367.22;5022314;28;20032;-69
2023/10/21 03:00:17;;;;;;;10.38;6.43;;;;;;;11.64;100.00;98369.38;5024832;28;20032;-69
2023/10/21 03:02:44;;;;;;;8.55;6.00;;;;;;;11.63;100.00;98378.16;5008183;28;20051;-69
2023/10/21 03:05:12;;;;;;;7.65;5.63;;;;;;;11.64;100.00;98379.75;5017822;28;20055;-69
2023/10/21 03:07:37;;;;;;;11.18;5.82;;;;;;;11.63;100.00;98385.16;5006390;28;20033;-69
2023/10/21 03:10:03;;;;;;;12.52;5.70;;;;;;;11.71;100.00;98384.06;5024198;28;20037;-69
2023/10/21 03:12:29;;;;;;;12.43;5.65;;;;;;;11.67;100.00;98397.47;5038790;28;20052;-69
2023/10/21 03:14:55;;;;;;;10.77;5.03;;;;;;;11.66;100.00;98395.13;5008818;28;20112;-69
2023/10/21 03:17:21;;;;;;;9.55;4.78;;;;;;;11.78;100.00;98398.53;5019448;28;20064;-68
2023/10/21 03:19:48;;;;;;;9.73;4.95;;;;;;;11.79;100.00;98401.91;5019709;28;20067;-68
2023/10/21 03:22:13;;;;;;;6.40;4.47;;;;;;;11.77;100.00;98406.53;5007343;28;20065;-69
2023/10/21 03:24:39;;;;;;;9.10;4.65;;;;;;;11.75;100.00;98409.34;5020582;28;20288;-69
2023/10/21 03:27:04;;;;;;;9.50;4.22;;;;;;;11.90;100.00;98416.75;5022656;28;20495;-68
2023/10/21 03:29:30;;;;;;;7.18;3.60;;;;;;;11.81;100.00;98418.88;5025876;28;20107;-69
2023/10/21 03:31:55;;;;;;;7.13;4.25;;;;;;;11.80;100.00;98422.47;5027090;28;20487;-69
2023/10/21 03:34:21;;;;;;;9.05;3.88;;;;;;;11.81;100.00;98431.03;5027104;28;20041;-69
2023/10/21 03:36:46;;;;;;;7.47;3.53;;;;;;;11.77;100.00;98435.91;5025906;28;20041;-69
2023/10/21 03:39:12;;;;;;;5.65;3.35;;;;;;;11.94;100.00;98436.09;5015586;28;20247;-68
2023/10/21 03:41:37;;;;;;;5.93;2.83;;;;;;;11.90;100.00;98442.72;5024365;28;20037;-69
2023/10/21 03:44:03;;;;;;;6.63;3.25;;;;;;;12.00;100.00;98444.81;5029087;28;20056;-69
2023/10/21 03:46:30;;;;;;;3.88;2.63;;;;;;;11.96;100.00;98454.84;5027604;28;20029;-68
2023/10/21 03:48:56;;;;;;;5.00;2.47;;;;;;;11.95;100.00;98458.44;5011761;28;20041;-69
2023/10/21 03:51:22;;;;;;;5.88;3.08;;;;;;;12.03;100.00;98462.53;5044369;28;20392;-69
2023/10/21 03:53:48;;;;;;;3.67;2.60;;;;;;;12.00;100.00;98463.78;5042470;28;20063;-69
2023/10/21 03:56:14;;;;;;;8.20;3.22;;;;;;;12.10;100.00;98470.22;5047158;28;20465;-70
2023/10/21 03:58:41;;;;;;;10.68;3.13;;;;;;;12.00;100.00;98478.56;5026021;28;20029;-69
2023/10/21 04:01:07;;;;;;;7.25;2.85;;;;;;;12.15;100.00;98481.53;5029402;28;20029;-69
2023/10/21 04:03:33;;;;;;;5.38;2.70;;;;;;;12.11;100.00;98485.59;5029994;28;20072;-69
2023/10/21 04:05:59;;;;;;;5.63;2.80;;;;;;;12.18;100.00;98485.50;5025725;28;20021;-69
2023/10/21 04:08:26;;;;;;;4.65;2.60;;;;;;;12.15;100.00;98494.53;5040566;28;20124;-69
2023/10/21 04:10:55;;;;;;;4.55;2.70;;;;;;;12.06;100.00;98495.84;5027273;28;20040;-69
2023/10/21 04:13:21;;;;;;;3.90;2.72;;;;;;;12.04;100.00;98492.69;5025098;28;20033;-69
2023/10/21 04:15:46;;;;;;;2.70;2.38;;;;;;;12.03;100.00;98504.09;5043303;28;20107;-69
2023/10/21 04:18:12;;;;;;;3.03;2.35;;;;;;;12.05;100.00;98510.66;5024458;28;20677;-68
2023/10/21 04:20:39;;;;;;;7.45;2.60;;;;;;;12.11;100.00;98514.19;5040679;28;20049;-69
2023/10/21 04:23:05;;;;;;;4.80;2.90;;;;;;;12.11;100.00;98521.97;5040259;28;20071;-69
2023/10/21 04:25:31;;;;;;;4.57;2.20;;;;;;;12.17;100.00;98526.28;5022828;28;20046;-69
2023/10/21 04:27:56;;;;;;;4.38;2.47;;;;;;;12.18;100.00;98519.25;5041886;28;21264;-69
2023/10/21 04:30:25;;;;;;;5.97;2.30;;;;;;;12.21;100.00;98532.59;5028021;28;20170;-69
2023/10/21 04:32:51;;;;;;;8.27;2.58;;;;;;;12.14;100.00;98523.31;5026327;28;20594;-69
2023/10/21 04:35:18;;;;;;;3.45;2.42;;;;;;;12.15;100.00;98525.72;5042047;28;20029;-69
2023/10/21 04:37:43;;;;;;;2.95;1.60;;;;;;;12.10;100.00;98533.34;5011628;28;20042;-69
2023/10/21 04:40:09;;;;;;;4.43;2.38;;;;;;;12.16;100.00;98540.25;5040176;28;20083;-69
2023/10/21 04:42:36;;;;;;;4.20;2.65;;;;;;;12.08;100.00;98541.38;5025653;28;20029;-69
2023/10/21 04:45:01;;;;;;;2.72;1.98;;;;;;;12.06;100.00;98542.63;5041899;28;20836;-69
2023/10/21 04:47:27;;;;;;;5.00;2.30;;;;;;;12.02;100.00;98541.47;5024342;28;20084;-69
2023/10/21 04:49:52;;;;;;;3.92;2.33;;;;;;;12.11;100.00;98549.72;5009181;28;20041;-69
2023/10/21 04:52:18;;;;;;;7.40;1.98;;;;;;;12.03;100.00;98551.63;5024869;28;20072;-69
2023/10/21 04:54:44;;;;;;;6.45;2.03;;;;;;;12.12;100.00;98561.72;5021857;23;20100;-68
2023/10/21 04:57:10;;;;;;;5.50;2.20;;;;;;;12.00;100.00;98559.88;4997234;28;20109;-68
2023/10/21 04:59:36;;;;;;;9.02;2.42;;;;;;;12.04;100.00;98568.00;4970668;28;20034;-68
2023/10/21 05:02:02;;;;;;;3.28;2.20;;;;;;;12.03;100.00;98569.81;4981392;28;20140;-68
2023/10/21 05:04:27;;;;;;;9.60;2.45;;;;;;;12.08;100.00;98571.75;4985681;28;20030;-68
2023/10/21 05:06:53;;;;;;;6.28;2.00;;;;;;;12.01;100.00;98577.03;4986100;28;20031;-68
2023/10/21 05:09:19;;;;;;;6.10;2.08;;;;;;;11.95;100.00;98575.31;4989090;28;20029;-68
2023/10/21 05:11:45;;;;;;;3.42;1.67;;;;;;;12.03;100.00;98579.41;4986521;28;20037;-68
2023/10/21 05:14:10;;;;;;;9.57;2.83;;;;;;;11.96;100.00;98581.28;4989480;28;20385;-69
2023/10/21 05:16:36;;;;;;;7.30;2.20;;;;;;;11.97;100.00;98581.06;4970496;28;20030;-68
2023/10/21 05:19:01;;;;;;;3.65;1.90;;;;;;;11.97;100.00;98595.88;4972543;28;20033;-68
2023/10/21 05:21:27;;;;;;;3.47;1.67;;;;;;;11.91;100.00;98599.34;4990020;28;20037;-68
2023/10/21 05:23:53;;;;;;;4.55;2.00;;;;;;;11.85;100.00;98603.56;5003401;28;20037;-68
2023/10/21 05:26:19;;;;;;;4.20;1.65;;;;;;;11.80;100.00;98611.22;5006968;28;20061;-68
2023/10/21 05:28:45;;;;;;;3.28;1.83;;;;;;;11.73;100.00;98605.28;5003811;28;20030;-68
2023/10/21 05:31:10;;;;;;;5.80;2.13;;;;;;;11.69;100.00;98612.72;4988610;28;20057;-68
2023/10/21 05:33:36;;;;;;;5.05;2.08;;;;;;;11.65;100.00;98619.34;4997444;28;20089;-68
2023/10/21 05:36:03;;;;;;;3.25;1.75;;;;;;;11.62;100.00;98625.78;4971795;28;20030;-68
2023/10/21 05:38:28;;;;;;;5.00;1.50;;;;;;;11.58;100.00;98634.97;5000877;28;20037;-68
2023/10/21 05:40:57;;;;;;;2.45;1.73;;;;;;;11.54;100.00;98636.44;4972040;28;20056;-68
2023/10/21 05:43:22;;;;;;;3.53;2.42;;;;;;;11.49;100.00;98637.09;4986221;28;20672;-68
2023/10/21 05:45:48;;;;;;;3.15;2.00;;;;;;;11.46;100.00;98641.91;4976152;28;20026;-68
2023/10/21 05:48:13;;;;;;;5.00;2.03;;;;;;;11.43;100.00;98648.31;4998131;28;20111;-68
2023/10/21 05:50:39;;;;;;;3.85;2.20;;;;;;;11.38;100.00;98655.94;4987345;28;20034;-69
2023/10/21 05:53:04;;;;;;;3.63;2.33;;;;;;;11.35;100.00;98653.78;4984414;28;20062;-68
2023/10/21 05:55:30;;;;;;;4.65;2.35;;;;;;;11.30;100.00;98657.00;4987761;28;20038;-68
2023/10/21 05:57:55;;;;;;;3.08;2.00;;;;;;;11.28;100.00;98664.22;5000783;28;20113;-68
2023/10/21 06:00:21;;;;;;;8.25;3.10;;;;;;;11.29;100.00;98670.19;5002179;28;20062;-68
2023/10/21 06:02:47;;;;;;;5.10;3.35;;;;;;;11.34;100.00;98670.38;4971536;28;20117;-68
2023/10/21 06:05:14;;;;;;;4.93;2.92;;;;;;;11.30;100.00;98685.56;5004163;28;20408;-69
2023/10/21 06:07:40;;;;;;;6.70;3.13;;;;;;;11.37;100.00;98682.88;4987962;28;20120;-69
2023/10/21 06:10:07;;;;;;;7.78;3.45;;;;;;;11.53;100.00;98688.53;4970232;28;20116;-68
2023/10/21 06:12:32;;;;;;;5.45;2.75;;;;;;;11.46;100.00;98686.03;4988216;28;20066;-68
2023/10/21 06:14:59;;;;;;;9.82;2.83;;;;;;;11.45;100.00;98689.63;4985721;28;20045;-68
2023/10/21 06:17:24;;;;;;;3.92;2.65;;;;;;;11.63;100.00;98701.84;4983877;28;20077;-68
2023/10/21 06:19:50;;;;;;;6.63;2.83;;;;;;;11.69;100.00;98712.16;4983591;28;20054;-67
2023/10/21 06:22:16;;;;;;;5.93;2.60;;;;;;;11.82;100.00;98716.44;4998711;28;20092;-68
2023/10/21 06:24:41;;;;;;;5.72;2.40;;;;;;;11.74;100.00;98721.13;4983838;28;20034;-68
2023/10/21 06:27:07;;;;;;;4.95;2.55;;;;;;;11.69;100.00;98722.53;5000548;28;20266;-68
2023/10/21 06:29:35;;;;;;;13.30;3.30;;;;;;;11.67;100.00;98734.94;4970361;28;20034;-68
2023/10/21 06:32:04;;;;;;;5.85;3.20;;;;;;;11.66;100.00;98738.56;4984044;28;20050;-68
2023/10/21 06:34:29;;;;;;;8.65;3.17;;;;;;;11.71;100.00;98744.91;4983325;28;20032;-68
2023/10/21 06:36:55;;;;;;;18.67;9.32;;;;;;;11.79;100.00;98750.63;4967978;28;20045;-69
2023/10/21 06:39:21;;;;;;;9.23;3.63;;;;;;;11.78;100.00;98759.44;5003393;28;20029;-68
2023/10/21 06:41:46;;;;;;;10.15;4.03;;;;;;;11.80;100.00;98772.97;5003339;28;20041;-69
2023/10/21 06:44:12;;;;;;;4.85;2.72;;;;;;;11.81;100.00;98771.19;5003026;28;20034;-68
2023/10/21 06:46:38;;;;;;;8.00;2.80;;;;;;;11.86;100.00;98782.50;5001979;28;20395;-68
2023/10/21 06:49:04;;;;;;;5.80;2.42;;;;;;;11.83;100.00;98784.75;5002230;28;20037;-68
2023/10/21 06:51:30;;;;;;;6.53;3.67;;;;;;;11.98;100.00;98794.84;4986979;28;21749;-68
2023/10/21 06:53:55;;;;;;;4.20;1.92;;;;;;;11.97;100.00;98793.25;4968079;28;20037;-68
2023/10/21 06:56:21;;;;;;;8.30;3.20;;;;;;;11.94;100.00;98806.66;4981919;28;20033;-68
2023/10/21 06:58:47;;;;;;;4.22;1.73;;;;;;;11.95;100.00;98811.66;4999749;28;20566;-68
2023/10/21 07:01:13;;;;;;;3.13;1.50;;;;;;;11.93;100.00;98823.28;4986119;28;20522;-68
2023/10/21 07:03:39;;;;;;;2.58;1.48;;;;;;;12.02;100.00;98814.19;4990170;28;20121;-69
2023/10/21 07:06:05;;;;;;;5.30;1.45;;;;;;;12.02;100.00;98830.56;4987973;28;20045;-68
2023/10/21 07:08:31;;;;;;;6.15;1.60;;;;;;;12.03;100.00;98839.94;5008303;28;20053;-68
2023/10/21 07:10:56;;;;;;;2.90;1.20;;;;;;;12.06;100.00;98846.53;5005394;28;20053;-68
2023/10/21 07:13:22;;;;;;;6.53;1.55;;;;;;;12.22;100.00;98848.59;4992026;28;20068;-68
2023/10/21 07:15:48;;;;;;;6.97;3.85;;;;;;;12.35;100.00;98850.25;4995436;28;20037;-68
2023/10/21 07:18:16;;;;;;;4.35;1.88;;;;;;;12.30;100.00;98860.50;5009645;28;20405;-68
2023/10/21 07:20:42;;;;;;;29.20;13.43;;;;;;;12.34;100.00;98859.06;5009783;28;20113;-68
2023/10/21 07:23:08;;;;;;;6.55;2.92;;;;;;;12.33;100.00;98870.47;4989137;28;20057;-68
2023/10/21 07:25:36;;;;;;;12.35;7.38;;;;;;;12.30;100.00;98864.91;5008781;28;20034;-68
2023/10/21 07:28:03;;;;;;;2.58;1.42;;;;;;;12.42;100.00;98876.97;5007703;28;20136;-67
2023/10/21 07:30:29;;;;;;;7.78;3.60;;;;;;;12.47;100.00;98889.34;4994678;28;20107;-68
2023/10/21 07:32:55;;;;;;;5.70;3.30;;;;;;;12.41;100.00;98904.00;4993567;28;20077;-68
2023/10/21 07:35:20;;;;;;;8.38;2.85;;;;;;;12.41;100.00;98910.97;4988946;28;20069;-69
2023/10/21 07:37:46;;;;;;;4.88;2.72;;;;;;;12.42;100.00;98930.78;4990003;28;20112;-68
2023/10/21 07:40:13;;;;;;;5.05;2.63;;;;;;;12.40;100.00;98912.78;4989571;28;20025;-68
2023/10/21 07:42:38;;;;;;;4.57;2.28;;;;;;;12.47;100.00;98907.53;5010272;28;20029;-68
2023/10/21 07:45:05;;;;;;;8.02;4.50;;;;;;;12.44;100.00;98911.34;4993373;28;20042;-68
2023/10/21 07:47:33;;;;;;;3.72;2.83;;;;;;;12.53;100.00;98911.09;4991982;28;20118;-68
2023/10/21 07:49:58;;;;;;;3.47;1.33;;;;;;;12.45;100.00;98922.53;4993160;28;20033;-68
2023/10/21 07:52:24;;;;;;;1.35;0.98;;;;;;;12.78;100.00;98921.44;5005241;28;20042;-68
2023/10/21 07:54:52;;;;;;;1.65;0.70;;;;;;;12.89;100.00;98923.31;4992614;28;20040;-68
2023/10/21 07:57:17;;;;;;;0.93;0.88;;;;;;;13.00;100.00;98932.22;5006355;28;20037;-68
2023/10/21 07:59:44;;;;;;;0.93;0.60;;;;;;;13.01;100.00;98936.41;5010875;28;20048;-68
2023/10/21 08:02:10;;;;;;;1.23;0.57;;;;;;;12.97;100.00;98936.03;4994432;28;20033;-68
2023/10/21 08:04:36;;;;;;;2.30;1.23;;;;;;;13.61;100.00;98938.31;5008534;28;20037;-68
2023/10/21 08:07:01;;;;;;;1.33;0.57;;;;;;;14.26;100.00;98950.63;4991839;28;20034;-67
2023/10/21 08:09:27;;;;;;;3.10;2.10;;;;;;;15.03;100.00;98943.69;5002522;28;20033;-68
2023/10/21 08:11:52;;;;;;;0.60;0.60;;;;;;;15.16;100.00;98951.28;4992124;28;20420;-68
2023/10/21 08:14:18;;;;;;;1.00;0.52;;;;;;;15.43;96.86;98953.38;4972712;28;20026;-68
2023/10/21 08:16:44;;;;;;;2.60;1.90;;;;;;;15.83;96.10;98970.84;4985884;28;20424;-67
2023/10/21 08:19:09;;;;;;;2.50;0.70;;;;;;;15.95;92.01;98972.41;5001986;28;20041;-68
2023/10/21 08:21:35;;;;;;;3.10;0.40;;;;;;;16.38;91.63;98978.03;5002550;28;20056;-68
2023/10/21 08:24:02;;;;;;;2.63;1.50;;;;;;;16.23;90.26;98985.63;5001926;28;20134;-68
2023/10/21 08:26:29;;;;;;;2.15;0.63;;;;;;;16.71;88.40;98986.91;4989818;28;20068;-68
2023/10/21 08:28:55;;;;;;;1.25;0.40;;;;;;;16.16;90.25;99001.47;4988375;28;20045;-68
2023/10/21 08:31:22;;;;;;;3.08;1.50;;;;;;;15.93;90.13;99005.00;5006568;28;20049;-67
2023/10/21 08:33:47;;;;;;;2.05;0.68;;;;;;;15.52;89.87;98998.97;4985960;28;20042;-68
2023/10/21 08:36:16;;;;;;;1.10;0.30;;;;;;;15.23;91.15;99022.44;5003926;28;20409;-67
2023/10/21 08:38:42;;;;;;;2.33;0.40;;;;;;;14.83;91.10;99017.16;5000600;28;20701;-67
2023/10/21 08:41:14;;;;;;;1.60;0.47;;;;;;;15.07;90.73;99021.34;5003957;28;20042;-67
2023/10/21 08:43:45;;;;;;;1.65;0.50;;;;;;;15.52;88.53;99025.09;4988502;28;20069;-68
2023/10/21 08:46:13;;;;;;;2.22;0.50;;;;;;;15.80;85.21;99019.13;4989591;28;20038;-67
2023/10/21 08:48:40;;;;;;;3.83;1.48;;;;;;;15.76;87.48;99015.41;5002254;28;20029;-67
2023/10/21 08:51:08;;;;;;;9.50;3.17;;;;;;;15.66;86.74;99026.44;5005056;28;20030;-67
2023/10/21 08:53:36;;;;;;;3.78;1.20;;;;;;;15.88;88.78;99024.00;4987570;28;20124;-67
2023/10/21 08:56:01;;;;;;;3.45;0.63;;;;;;;15.86;85.01;99028.69;4985614;28;20041;-67
2023/10/21 08:58:31;;;;;;;2.50;0.80;;;;;;;16.02;85.40;99032.34;5004333;28;20511;-67
2023/10/21 09:00:57;;;;;;;3.83;0.50;;;;;;;16.25;85.05;99035.88;4990152;28;20041;-67
2023/10/21 09:03:24;;;;;;;2.13;0.77;;;;;;;15.96;84.99;99031.47;4970532;28;20435;-68
2023/10/21 09:06:10;;;;;;;2.45;0.50;;;;;;;15.79;86.81;99050.75;4989235;28;20065;-68
2023/10/21 09:08:36;;;;;;;1.13;0.38;;;;;;;15.40;84.84;99043.41;5004978;28;20041;-67
2023/10/21 09:11:06;;;;;;;1.85;0.60;;;;;;;15.10;86.74;99054.78;5003739;28;20056;-67
2023/10/21 09:13:36;;;;;;;1.85;0.50;;;;;;;15.02;88.97;99047.31;5005003;28;20157;-67
2023/10/21 09:16:19;;;;;;;2.35;0.82;;;;;;;14.83;90.11;99061.50;5003104;28;20041;-67
2023/10/21 09:19:04;;;;;;;1.45;0.50;;;;;;;14.39;88.74;99065.13;5004293;28;20038;-67
2023/10/21 09:21:41;;;;;;;3.38;0.98;;;;;;;14.34;89.10;99059.00;4985294;28;20484;-67
2023/10/21 09:24:09;;;;;;;3.03;0.70;;;;;;;14.17;89.11;99066.66;4986404;28;20053;-67
2023/10/21 09:26:39;;;;;;;3.20;0.70;;;;;;;14.17;91.75;99074.47;5003463;28;21288;-67
2023/10/21 09:29:13;;;;;;;4.60;1.27;;;;;;;14.35;90.17;99065.78;4999837;28;20057;-67
2023/10/21 09:31:53;;;;;;;2.47;0.57;;;;;;;14.31;87.36;99067.25;4988794;28;20049;-67
2023/10/21 09:34:27;;;;;;;1.80;0.50;;;;;;;14.43;88.68;99065.47;4999302;28;20038;-67
2023/10/21 09:36:54;;;;;;;3.00;0.80;;;;;;;14.51;86.95;99072.19;5004388;28;20061;-67
2023/10/21 09:39:25;;;;;;;2.80;0.52;;;;;;;14.51;85.74;99080.81;4969137;28;20014;-67
2023/10/21 09:41:51;;;;;;;7.93;1.00;;;;;;;14.54;85.56;99079.53;4983216;28;20030;-67
2023/10/21 09:44:17;;;;;;;4.28;0.82;;;;;;;14.56;87.66;99088.75;4979856;28;20034;-67
2023/10/21 09:46:47;;;;;;;1.85;0.50;;;;;;;14.61;86.11;99090.72;4966253;28;20121;-67
2023/10/21 09:49:13;;;;;;;1.70;0.50;;;;;;;14.69;87.54;99097.41;4962017;28;20555;-67
2023/10/21 09:52:01;;;;;;;2.15;0.40;;;;;;;14.63;86.40;99100.94;4963683;28;20535;-67
2023/10/21 09:55:02;;;;;;;3.65;0.88;;;;;;;14.64;85.76;99112.97;4989563;28;20052;-67
2023/10/21 09:57:29;;;;;;;6.22;0.65;;;;;;;14.60;85.51;99112.63;4976099;28;20065;-67
2023/10/21 09:59:56;;;;;;;4.22;0.50;;;;;;;14.52;85.71;99115.50;4966228;28;20037;-67
2023/10/21 10:02:24;;;;;;;1.42;0.38;;;;;;;14.64;85.11;99124.19;4980706;28;20065;-67
2023/10/21 10:04:50;;;;;;;5.53;0.50;;;;;;;14.83;84.57;99117.09;4963225;28;20042;-67
2023/10/21 10:07:17;;;;;;;4.65;0.88;;;;;;;14.84;85.40;99123.88;4980114;28;20049;-67
2023/10/21 10:09:44;;;;;;;2.03;0.40;;;;;;;14.81;83.70;99128.78;4979871;28;20057;-67
2023/10/21 10:12:22;;;;;;;2.30;0.82;;;;;;;14.75;85.87;99126.03;4981527;28;20057;-67
2023/10/21 10:14:47;;;;;;;1.77;0.50;;;;;;;14.68;88.50;99135.75;4982955;28;20043;-67
2023/10/21 10:17:13;;;;;;;3.78;0.55;;;;;;;14.68;85.61;99138.38;4961323;28;20880;-67
2023/10/21 10:19:40;;;;;;;2.70;0.50;;;;;;;14.78;86.12;99136.00;4980078;28;20037;-67
2023/10/21 10:22:31;;;;;;;2.65;0.30;;;;;;;14.66;85.29;99142.22;4966130;28;20031;-66
2023/10/21 10:25:15;;;;;;;2.15;0.52;;;;;;;14.75;84.22;99151.34;4960039;28;20038;-67
2023/10/21 10:27:41;;;;;;;8.27;1.23;;;;;;;14.91;84.67;99155.09;4965886;28;20046;-67
2023/10/21 10:30:08;;;;;;;1.63;0.40;;;;;;;15.02;85.32;99145.72;4982623;28;20030;-67
2023/10/21 10:32:43;;;;;;;2.67;0.55;;;;;;;15.18;81.69;99150.25;4972143;28;20050;-67
2023/10/21 10:35:09;;;;;;;4.38;0.50;;;;;;;15.16;81.14;99153.09;4966971;28;20038;-67
2023/10/21 10:37:36;;;;;;;4.50;0.52;;;;;;;15.11;80.82;99160.03;4976558;28;20042;-67
2023/10/21 10:40:18;;;;;;;5.82;0.90;;;;;;;15.14;79.59;99160.38;4996091;28;20103;-67
2023/10/21 10:42:45;;;;;;;6.22;0.75;;;;;;;15.06;79.98;99175.56;4976906;28;20243;-67
2023/10/21 10:45:10;;;;;;;9.15;0.68;;;;;;;14.91;79.32;99170.75;4960622;28;20042;-66
2023/10/21 10:47:39;;;;;;;3.50;0.47;;;;;;;15.11;81.24;99171.25;4978951;28;20086;-67
2023/10/21 10:50:12;;;;;;;4.38;0.50;;;;;;;15.10;81.91;99161.81;4977344;28;20143;-67
2023/10/21 10:52:38;;;;;;;;;;;;;;;15.13;81.31;99179.66;4974440;28;20038;-66
2023/10/21 10:55:08;;;;;;;4.15;0.70;;;;;;;15.26;79.52;99176.03;4978110;28;20398;-66
2023/10/21 10:57:34;;;;;;;2.30;0.80;;;;;;;15.31;79.72;99178.78;4968407;28;20039;-66
2023/10/21 11:00:00;;;;;;;4.22;0.50;;;;;;;15.30;79.08;99169.34;4980360;28;20031;-66
2023/10/21 11:02:28;;;;;;;0.57;0.30;;;;;;;15.22;76.31;99177.50;4997801;28;20037;-66
2023/10/21 11:04:59;;;;;;;2.17;0.50;;;;;;;15.22;76.91;99167.06;4971136;28;20120;-66
2023/10/21 11:07:30;;;;;;;7.22;0.60;;;;;;;15.09;76.17;99182.94;5002795;28;20116;-66
2023/10/21 11:10:02;;;;;;;3.50;0.40;;;;;;;15.12;76.01;99164.22;5001300;28;20041;-66
2023/10/21 11:12:28;;;;;;;3.60;0.60;;;;;;;15.10;75.47;99182.69;5000756;22;20050;-67
2023/10/21 11:14:54;;;;;;;6.47;0.50;;;;;;;15.15;75.04;99169.78;4998355;28;20037;-68
2023/10/21 11:17:20;;;;;;;3.45;0.50;;;;;;;15.14;74.12;99154.34;4984171;28;20100;-68
2023/10/21 11:19:46;;;;;;;6.55;0.65;;;;;;;15.11;74.33;99173.88;4986592;28;20391;-68
2023/10/21 11:22:21;;;;;;;5.70;0.93;;;;;;;15.17;74.90;99166.94;5001985;28;20442;-68
2023/10/21 11:24:47;;;;;;;7.07;0.77;;;;;;;15.19;72.22;99183.19;4971151;28;20034;-68
2023/10/21 11:27:14;;;;;;;5.10;0.68;;;;;;;15.19;74.28;99178.75;4999739;28;20044;-68